Погода Врилиссияна неделю

Аттика, Греция

01 - 07 сентября
  • 01сентября
    Сегодня
    +23°
    +36°
    Ясно и безоблачно
    ВремяПогодаТемператураВлажностьДавлениеВетер, м/сВероятность осадков
    00:00Ясно и безоблачно+25°C40 %740 мм1.7 м/с2 %
    03:00Ясно и безоблачно+24°C43 %740 мм1.3 м/с2 %
    06:00Ясно и безоблачно+23°C50 %739 мм1.2 м/с2 %
    09:00Ясно и безоблачно+28°C39 %740 мм1.3 м/с2 %
    12:00Ясно и безоблачно+33°C31 %741 мм3.4 м/с2 %
    15:00Ясно и безоблачно+35°C25 %740 мм3.6 м/с2 %
    18:00Ясно и безоблачно+33°C30 %740 мм3.1 м/с2 %
    21:00Ясно и безоблачно+28°C44 %740 мм1.8 м/с2 %
  • 02сентября
    Среда
    +23°
    +35°
    Ясно и безоблачно
    ВремяПогодаТемператураВлажностьДавлениеВетер, м/сВероятность осадков
    00:00Ясно и безоблачно+26°C52 %740 мм1.0 м/с2 %
    03:00Ясно и безоблачно+24°C56 %740 мм1.5 м/с2 %
    06:00Ясно и безоблачно+23°C57 %740 мм1.8 м/с2 %
    09:00Ясно и безоблачно+29°C38 %741 мм2.2 м/с2 %
    12:00Ясно и безоблачно+33°C29 %741 мм5.1 м/с2 %
    15:00Ясно и безоблачно+35°C23 %741 мм5.4 м/с2 %
    18:00Ясно и безоблачно+33°C24 %740 мм4.1 м/с2 %
    21:00Ясно и безоблачно+29°C31 %739 мм1.6 м/с2 %
  • 03сентября
    Четверг
    +21°
    +35°
    Практически безоблачно
    ВремяПогодаТемператураВлажностьДавлениеВетер, м/сВероятность осадков
    00:00Ясно и безоблачно+26°C38 %740 мм2.0 м/с2 %
    03:00Ясно и безоблачно+25°C40 %739 мм2.1 м/с2 %
    06:00Ясно и безоблачно+24°C48 %739 мм1.7 м/с2 %
    09:00Ясно и безоблачно+28°C45 %739 мм1.9 м/с2 %
    12:00Ясно и безоблачно+32°C33 %739 мм3.6 м/с2 %
    15:00Практически безоблачно+34°C24 %738 мм3.9 м/с13 %
    18:00Небольшая облачность+32°C28 %738 мм3.1 м/с10 %
    21:00Практически безоблачно+28°C40 %738 мм2.2 м/с3 %
  • 04сентября
    Пятница
    +21°
    +33°
    Ясно и безоблачно
    ВремяПогодаТемператураВлажностьДавлениеВетер, м/сВероятность осадков
    00:00Практически безоблачно+24°C50 %738 мм1.5 м/с2 %
    03:00Ясно и безоблачно+23°C58 %738 мм2.2 м/с2 %
    06:00Ясно и безоблачно+22°C77 %738 мм2.6 м/с3 %
    09:00Ясно и безоблачно+26°C64 %739 мм2.3 м/с3 %
    12:00Ясно и безоблачно+30°C39 %740 мм4.3 м/с12 %
    15:00Ясно и безоблачно+33°C31 %740 мм4.5 м/с21 %
    18:00Ясно и безоблачно+31°C36 %740 мм4.8 м/с14 %
    21:00Ясно и безоблачно+26°C49 %741 мм2.4 м/с2 %
  • 05сентября
    Суббота
    +21°
    +33°
    Ясно и безоблачно
    ВремяПогодаТемператураВлажностьДавлениеВетер, м/сВероятность осадков
    00:00Ясно и безоблачно+23°C58 %741 мм2.2 м/с2 %
    03:00Ясно и безоблачно+22°C55 %741 мм2.9 м/с3 %
    06:00Ясно и безоблачно+21°C65 %741 мм3.7 м/с2 %
    09:00Ясно и безоблачно+27°C49 %743 мм4.5 м/с2 %
    12:00Ясно и безоблачно+31°C37 %743 мм4.6 м/с2 %
    15:00Ясно и безоблачно+33°C29 %743 мм5.1 м/с2 %
    18:00Ясно и безоблачно+31°C31 %742 мм4.3 м/с2 %
    21:00Ясно и безоблачно+26°C41 %743 мм1.9 м/с2 %
  • 06сентября
    Воскресенье
    +21°
    +35°
    Ясно и безоблачно
    ВремяПогодаТемператураВлажностьДавлениеВетер, м/сВероятность осадков
    03:00Ясно и безоблачно+22°C50 %743 мм1.9 м/с2 %
    09:00Ясно и безоблачно+27°C45 %743 мм1.4 м/с2 %
    15:00Ясно и безоблачно+34°C28 %743 мм3.5 м/с2 %
    21:00Ясно и безоблачно+29°C38 %742 мм1.8 м/с2 %
  • 07сентября
    Понедельник
    +20°
    +33°
    Ясно и безоблачно
    ВремяПогодаТемператураВлажностьДавлениеВетер, м/сВероятность осадков
    03:00Ясно и безоблачно+23°C47 %742 мм2.0 м/с2 %
    09:00Ясно и безоблачно+26°C54 %743 мм2.7 м/с2 %
    15:00Ясно и безоблачно+33°C36 %743 мм4.2 м/с2 %
    21:00Ясно и безоблачно+26°C52 %742 мм2.8 м/с2 %
Мы используем cookies
Соглашаюсь